sensor_id;sensor_type;location;lat;lon;timestamp;P1;durP1;ratioP1;P2;durP2;ratioP2
32918;SDS011;19280;42.646;21.150;2023-06-26T00:00:55;30.25;;;22.88;;
32918;SDS011;19280;42.646;21.150;2023-06-26T00:03:21;27.00;;;20.58;;
32918;SDS011;19280;42.646;21.150;2023-06-26T00:05:48;24.40;;;21.67;;
32918;SDS011;19280;42.646;21.150;2023-06-26T00:08:15;23.88;;;20.25;;
32918;SDS011;19280;42.646;21.150;2023-06-26T00:10:41;28.52;;;22.75;;
32918;SDS011;19280;42.646;21.150;2023-06-26T00:13:07;40.15;;;28.30;;
32918;SDS011;19280;42.646;21.150;2023-06-26T00:15:37;24.48;;;20.08;;
32918;SDS011;19280;42.646;21.150;2023-06-26T00:18:03;26.10;;;20.08;;
32918;SDS011;19280;42.646;21.150;2023-06-26T00:20:29;25.08;;;20.52;;
32918;SDS011;19280;42.646;21.150;2023-06-26T00:22:58;27.38;;;21.73;;
32918;SDS011;19280;42.646;21.150;2023-06-26T00:25:24;25.75;;;20.00;;
32918;SDS011;19280;42.646;21.150;2023-06-26T00:27:50;34.10;;;25.33;;
32918;SDS011;19280;42.646;21.150;2023-06-26T00:30:17;23.92;;;19.20;;
32918;SDS011;19280;42.646;21.150;2023-06-26T00:32:43;23.83;;;19.15;;
32918;SDS011;19280;42.646;21.150;2023-06-26T00:35:09;23.13;;;19.67;;
32918;SDS011;19280;42.646;21.150;2023-06-26T00:37:35;21.63;;;18.30;;
32918;SDS011;19280;42.646;21.150;2023-06-26T00:40:02;27.45;;;21.77;;
32918;SDS011;19280;42.646;21.150;2023-06-26T00:42:30;28.83;;;20.65;;
32918;SDS011;19280;42.646;21.150;2023-06-26T00:44:56;29.98;;;24.40;;
32918;SDS011;19280;42.646;21.150;2023-06-26T00:47:23;31.40;;;20.85;;
32918;SDS011;19280;42.646;21.150;2023-06-26T00:49:50;27.92;;;21.35;;
32918;SDS011;19280;42.646;21.150;2023-06-26T00:52:16;27.48;;;19.75;;
32918;SDS011;19280;42.646;21.150;2023-06-26T00:54:43;27.33;;;21.17;;
32918;SDS011;19280;42.646;21.150;2023-06-26T00:57:09;32.88;;;27.60;;
32918;SDS011;19280;42.646;21.150;2023-06-26T00:59:35;29.45;;;24.08;;
32918;SDS011;19280;42.646;21.150;2023-06-26T01:02:01;34.85;;;28.02;;
32918;SDS011;19280;42.646;21.150;2023-06-26T01:04:27;29.95;;;24.75;;
32918;SDS011;19280;42.646;21.150;2023-06-26T01:06:57;29.30;;;23.65;;
32918;SDS011;19280;42.646;21.150;2023-06-26T01:09:24;37.03;;;28.00;;
32918;SDS011;19280;42.646;21.150;2023-06-26T01:11:51;34.72;;;27.65;;
32918;SDS011;19280;42.646;21.150;2023-06-26T01:14:17;52.75;;;39.33;;
32918;SDS011;19280;42.646;21.150;2023-06-26T01:16:44;36.35;;;28.35;;
32918;SDS011;19280;42.646;21.150;2023-06-26T01:19:20;41.63;;;33.00;;
32918;SDS011;19280;42.646;21.150;2023-06-26T01:21:54;35.60;;;27.45;;
32918;SDS011;19280;42.646;21.150;2023-06-26T01:24:22;34.45;;;27.38;;
32918;SDS011;19280;42.646;21.150;2023-06-26T01:26:52;35.55;;;26.50;;
32918;SDS011;19280;42.646;21.150;2023-06-26T01:29:19;32.20;;;27.10;;
32918;SDS011;19280;42.646;21.150;2023-06-26T01:31:46;35.13;;;28.30;;
32918;SDS011;19280;42.646;21.150;2023-06-26T01:34:17;35.03;;;26.48;;
32918;SDS011;19280;42.646;21.150;2023-06-26T01:36:44;39.88;;;28.83;;
32918;SDS011;19280;42.646;21.150;2023-06-26T01:39:12;43.50;;;29.02;;
32918;SDS011;19280;42.646;21.150;2023-06-26T01:41:38;38.88;;;28.17;;
32918;SDS011;19280;42.646;21.150;2023-06-26T01:46:47;36.42;;;27.45;;
32918;SDS011;19280;42.646;21.150;2023-06-26T01:49:20;37.53;;;28.13;;
32918;SDS011;19280;42.646;21.150;2023-06-26T01:54:14;40.72;;;29.17;;
32918;SDS011;19280;42.646;21.150;2023-06-26T01:56:43;35.65;;;27.20;;
32918;SDS011;19280;42.646;21.150;2023-06-26T01:59:10;35.95;;;26.52;;
32918;SDS011;19280;42.646;21.150;2023-06-26T02:01:39;36.90;;;27.65;;
32918;SDS011;19280;42.646;21.150;2023-06-26T02:04:05;33.47;;;27.45;;
32918;SDS011;19280;42.646;21.150;2023-06-26T02:06:31;35.50;;;26.38;;
32918;SDS011;19280;42.646;21.150;2023-06-26T02:08:57;37.60;;;26.17;;
32918;SDS011;19280;42.646;21.150;2023-06-26T02:11:23;37.28;;;29.30;;
32918;SDS011;19280;42.646;21.150;2023-06-26T02:13:49;32.28;;;25.15;;
32918;SDS011;19280;42.646;21.150;2023-06-26T02:16:15;31.92;;;25.05;;
32918;SDS011;19280;42.646;21.150;2023-06-26T02:18:41;29.55;;;24.63;;
32918;SDS011;19280;42.646;21.150;2023-06-26T02:21:08;39.53;;;25.42;;
32918;SDS011;19280;42.646;21.150;2023-06-26T02:23:34;33.55;;;25.08;;
32918;SDS011;19280;42.646;21.150;2023-06-26T02:26:01;31.95;;;24.83;;
32918;SDS011;19280;42.646;21.150;2023-06-26T02:28:27;32.47;;;24.20;;
32918;SDS011;19280;42.646;21.150;2023-06-26T02:30:53;38.10;;;25.42;;
32918;SDS011;19280;42.646;21.150;2023-06-26T02:33:19;32.55;;;25.63;;
32918;SDS011;19280;42.646;21.150;2023-06-26T02:35:45;37.40;;;25.25;;
32918;SDS011;19280;42.646;21.150;2023-06-26T02:38:11;35.15;;;25.13;;
32918;SDS011;19280;42.646;21.150;2023-06-26T02:40:38;34.03;;;24.65;;
32918;SDS011;19280;42.646;21.150;2023-06-26T02:43:04;39.85;;;26.40;;
32918;SDS011;19280;42.646;21.150;2023-06-26T02:45:30;32.78;;;22.50;;
32918;SDS011;19280;42.646;21.150;2023-06-26T02:47:56;31.85;;;23.13;;
32918;SDS011;19280;42.646;21.150;2023-06-26T02:50:22;35.28;;;24.10;;
32918;SDS011;19280;42.646;21.150;2023-06-26T02:52:48;30.73;;;22.92;;
32918;SDS011;19280;42.646;21.150;2023-06-26T02:55:17;42.13;;;25.42;;
32918;SDS011;19280;42.646;21.150;2023-06-26T02:57:46;32.08;;;23.63;;
32918;SDS011;19280;42.646;21.150;2023-06-26T03:00:12;34.80;;;24.77;;
32918;SDS011;19280;42.646;21.150;2023-06-26T03:02:39;32.85;;;23.15;;
32918;SDS011;19280;42.646;21.150;2023-06-26T03:05:05;30.42;;;22.77;;
32918;SDS011;19280;42.646;21.150;2023-06-26T03:07:31;34.38;;;24.50;;
32918;SDS011;19280;42.646;21.150;2023-06-26T03:09:57;35.25;;;24.85;;
32918;SDS011;19280;42.646;21.150;2023-06-26T03:12:24;32.10;;;23.80;;
32918;SDS011;19280;42.646;21.150;2023-06-26T03:14:51;39.20;;;24.58;;
32918;SDS011;19280;42.646;21.150;2023-06-26T03:17:17;37.10;;;25.15;;
32918;SDS011;19280;42.646;21.150;2023-06-26T03:19:43;28.52;;;23.00;;
32918;SDS011;19280;42.646;21.150;2023-06-26T03:22:10;33.75;;;24.60;;
32918;SDS011;19280;42.646;21.150;2023-06-26T03:24:36;31.80;;;24.27;;
32918;SDS011;19280;42.646;21.150;2023-06-26T03:27:02;33.03;;;25.17;;
32918;SDS011;19280;42.646;21.150;2023-06-26T03:29:28;39.35;;;30.02;;
32918;SDS011;19280;42.646;21.150;2023-06-26T03:31:55;36.08;;;25.50;;
32918;SDS011;19280;42.646;21.150;2023-06-26T03:34:21;38.25;;;25.23;;
32918;SDS011;19280;42.646;21.150;2023-06-26T03:36:47;38.22;;;25.23;;
32918;SDS011;19280;42.646;21.150;2023-06-26T03:39:13;35.65;;;25.88;;
32918;SDS011;19280;42.646;21.150;2023-06-26T03:41:39;36.88;;;25.63;;
32918;SDS011;19280;42.646;21.150;2023-06-26T03:44:05;39.08;;;27.15;;
32918;SDS011;19280;42.646;21.150;2023-06-26T03:46:31;41.55;;;29.80;;
32918;SDS011;19280;42.646;21.150;2023-06-26T03:48:58;34.30;;;24.30;;
32918;SDS011;19280;42.646;21.150;2023-06-26T03:51:24;38.63;;;26.92;;
32918;SDS011;19280;42.646;21.150;2023-06-26T03:53:50;32.47;;;24.33;;
32918;SDS011;19280;42.646;21.150;2023-06-26T03:56:16;38.42;;;25.33;;
32918;SDS011;19280;42.646;21.150;2023-06-26T03:58:42;40.03;;;23.45;;
32918;SDS011;19280;42.646;21.150;2023-06-26T04:01:08;32.42;;;23.67;;
32918;SDS011;19280;42.646;21.150;2023-06-26T04:03:34;35.67;;;27.65;;
32918;SDS011;19280;42.646;21.150;2023-06-26T04:06:00;33.42;;;23.58;;
32918;SDS011;19280;42.646;21.150;2023-06-26T04:08:26;36.65;;;27.75;;
32918;SDS011;19280;42.646;21.150;2023-06-26T04:10:52;32.00;;;24.08;;
32918;SDS011;19280;42.646;21.150;2023-06-26T04:13:20;44.00;;;29.13;;
32918;SDS011;19280;42.646;21.150;2023-06-26T04:15:46;38.55;;;26.90;;
32918;SDS011;19280;42.646;21.150;2023-06-26T04:18:12;37.33;;;26.08;;
32918;SDS011;19280;42.646;21.150;2023-06-26T04:20:39;38.78;;;29.20;;
32918;SDS011;19280;42.646;21.150;2023-06-26T04:23:05;43.35;;;28.83;;
32918;SDS011;19280;42.646;21.150;2023-06-26T04:25:31;30.80;;;24.55;;
32918;SDS011;19280;42.646;21.150;2023-06-26T04:27:57;47.25;;;35.60;;
32918;SDS011;19280;42.646;21.150;2023-06-26T04:30:23;34.15;;;23.70;;
32918;SDS011;19280;42.646;21.150;2023-06-26T04:32:49;31.17;;;22.90;;
32918;SDS011;19280;42.646;21.150;2023-06-26T04:35:15;33.35;;;23.45;;
32918;SDS011;19280;42.646;21.150;2023-06-26T04:37:41;27.45;;;21.67;;
32918;SDS011;19280;42.646;21.150;2023-06-26T04:40:07;27.83;;;21.50;;
32918;SDS011;19280;42.646;21.150;2023-06-26T04:42:34;28.38;;;22.73;;
32918;SDS011;19280;42.646;21.150;2023-06-26T04:45:00;31.75;;;22.38;;
32918;SDS011;19280;42.646;21.150;2023-06-26T04:47:27;28.83;;;21.20;;
32918;SDS011;19280;42.646;21.150;2023-06-26T04:49:53;24.50;;;20.20;;
32918;SDS011;19280;42.646;21.150;2023-06-26T04:52:20;31.25;;;23.38;;
32918;SDS011;19280;42.646;21.150;2023-06-26T04:54:46;32.58;;;25.40;;
32918;SDS011;19280;42.646;21.150;2023-06-26T04:57:12;39.30;;;24.27;;
32918;SDS011;19280;42.646;21.150;2023-06-26T04:59:39;29.95;;;21.67;;
32918;SDS011;19280;42.646;21.150;2023-06-26T05:02:06;29.52;;;21.25;;
32918;SDS011;19280;42.646;21.150;2023-06-26T05:04:32;29.88;;;21.45;;
32918;SDS011;19280;42.646;21.150;2023-06-26T05:06:58;30.65;;;24.23;;
32918;SDS011;19280;42.646;21.150;2023-06-26T05:09:24;36.13;;;25.85;;
32918;SDS011;19280;42.646;21.150;2023-06-26T05:14:20;33.67;;;24.52;;
32918;SDS011;19280;42.646;21.150;2023-06-26T05:16:46;33.45;;;23.00;;
32918;SDS011;19280;42.646;21.150;2023-06-26T05:19:12;28.95;;;21.65;;
32918;SDS011;19280;42.646;21.150;2023-06-26T05:21:38;39.88;;;25.13;;
32918;SDS011;19280;42.646;21.150;2023-06-26T05:24:05;35.88;;;27.50;;
32918;SDS011;19280;42.646;21.150;2023-06-26T05:26:31;29.48;;;21.95;;
32918;SDS011;19280;42.646;21.150;2023-06-26T05:28:57;32.25;;;21.02;;
32918;SDS011;19280;42.646;21.150;2023-06-26T05:31:24;35.65;;;22.10;;
32918;SDS011;19280;42.646;21.150;2023-06-26T05:33:50;31.30;;;23.63;;
32918;SDS011;19280;42.646;21.150;2023-06-26T05:36:17;30.42;;;25.85;;
32918;SDS011;19280;42.646;21.150;2023-06-26T05:38:44;32.88;;;20.85;;
32918;SDS011;19280;42.646;21.150;2023-06-26T05:41:10;30.05;;;21.88;;
32918;SDS011;19280;42.646;21.150;2023-06-26T05:43:37;33.65;;;22.88;;
32918;SDS011;19280;42.646;21.150;2023-06-26T05:46:12;30.58;;;21.98;;
32918;SDS011;19280;42.646;21.150;2023-06-26T05:48:38;27.33;;;21.02;;
32918;SDS011;19280;42.646;21.150;2023-06-26T05:51:04;27.48;;;20.75;;
32918;SDS011;19280;42.646;21.150;2023-06-26T05:53:31;32.33;;;21.10;;
32918;SDS011;19280;42.646;21.150;2023-06-26T05:58:27;32.58;;;23.05;;
32918;SDS011;19280;42.646;21.150;2023-06-26T06:03:29;28.05;;;18.67;;
32918;SDS011;19280;42.646;21.150;2023-06-26T06:05:55;29.10;;;17.85;;
32918;SDS011;19280;42.646;21.150;2023-06-26T06:08:21;22.92;;;16.20;;
32918;SDS011;19280;42.646;21.150;2023-06-26T06:10:47;21.58;;;15.57;;
32918;SDS011;19280;42.646;21.150;2023-06-26T06:13:13;19.30;;;15.02;;
32918;SDS011;19280;42.646;21.150;2023-06-26T06:15:39;20.52;;;14.70;;
32918;SDS011;19280;42.646;21.150;2023-06-26T06:18:05;20.65;;;15.70;;
32918;SDS011;19280;42.646;21.150;2023-06-26T06:20:31;21.90;;;16.70;;
32918;SDS011;19280;42.646;21.150;2023-06-26T06:25:23;19.75;;;14.40;;
32918;SDS011;19280;42.646;21.150;2023-06-26T06:27:49;16.98;;;13.38;;
32918;SDS011;19280;42.646;21.150;2023-06-26T06:30:17;18.25;;;14.73;;
32918;SDS011;19280;42.646;21.150;2023-06-26T06:32:43;16.05;;;12.63;;
32918;SDS011;19280;42.646;21.150;2023-06-26T06:35:09;17.88;;;12.88;;
32918;SDS011;19280;42.646;21.150;2023-06-26T06:37:36;17.13;;;11.57;;
32918;SDS011;19280;42.646;21.150;2023-06-26T06:40:03;15.70;;;12.43;;
32918;SDS011;19280;42.646;21.150;2023-06-26T06:42:29;15.73;;;12.25;;
32918;SDS011;19280;42.646;21.150;2023-06-26T06:44:55;15.80;;;12.75;;
32918;SDS011;19280;42.646;21.150;2023-06-26T06:47:21;22.95;;;17.17;;
32918;SDS011;19280;42.646;21.150;2023-06-26T06:49:47;23.05;;;16.80;;
32918;SDS011;19280;42.646;21.150;2023-06-26T06:52:13;22.70;;;16.45;;
32918;SDS011;19280;42.646;21.150;2023-06-26T06:55:12;23.33;;;17.05;;
32918;SDS011;19280;42.646;21.150;2023-06-26T06:57:33;24.23;;;15.82;;
32918;SDS011;19280;42.646;21.150;2023-06-26T07:00:10;22.88;;;15.82;;
32918;SDS011;19280;42.646;21.150;2023-06-26T07:02:37;18.52;;;14.88;;
32918;SDS011;19280;42.646;21.150;2023-06-26T07:05:03;21.95;;;14.77;;
32918;SDS011;19280;42.646;21.150;2023-06-26T07:07:31;16.63;;;13.20;;
32918;SDS011;19280;42.646;21.150;2023-06-26T07:09:58;18.55;;;14.63;;
32918;SDS011;19280;42.646;21.150;2023-06-26T07:12:25;14.80;;;13.20;;
32918;SDS011;19280;42.646;21.150;2023-06-26T07:14:51;14.43;;;12.88;;
32918;SDS011;19280;42.646;21.150;2023-06-26T07:17:18;17.45;;;13.27;;
32918;SDS011;19280;42.646;21.150;2023-06-26T07:19:44;21.10;;;14.63;;
32918;SDS011;19280;42.646;21.150;2023-06-26T07:22:11;19.35;;;14.07;;
32918;SDS011;19280;42.646;21.150;2023-06-26T07:24:37;15.35;;;12.88;;
32918;SDS011;19280;42.646;21.150;2023-06-26T07:27:03;21.25;;;15.35;;
32918;SDS011;19280;42.646;21.150;2023-06-26T07:29:29;21.33;;;14.98;;
32918;SDS011;19280;42.646;21.150;2023-06-26T07:31:55;16.35;;;13.10;;
32918;SDS011;19280;42.646;21.150;2023-06-26T07:34:21;16.20;;;13.20;;
32918;SDS011;19280;42.646;21.150;2023-06-26T07:36:47;20.38;;;12.70;;
32918;SDS011;19280;42.646;21.150;2023-06-26T07:39:14;16.08;;;13.65;;
32918;SDS011;19280;42.646;21.150;2023-06-26T07:41:40;17.67;;;13.48;;
32918;SDS011;19280;42.646;21.150;2023-06-26T07:44:06;20.08;;;12.77;;
32918;SDS011;19280;42.646;21.150;2023-06-26T07:46:32;18.02;;;12.32;;
32918;SDS011;19280;42.646;21.150;2023-06-26T07:48:58;16.27;;;12.43;;
32918;SDS011;19280;42.646;21.150;2023-06-26T07:51:24;18.58;;;13.15;;
32918;SDS011;19280;42.646;21.150;2023-06-26T07:53:50;14.20;;;10.35;;
32918;SDS011;19280;42.646;21.150;2023-06-26T07:56:16;15.18;;;10.05;;
32918;SDS011;19280;42.646;21.150;2023-06-26T07:58:42;18.83;;;9.73;;
32918;SDS011;19280;42.646;21.150;2023-06-26T08:01:08;12.55;;;9.40;;
32918;SDS011;19280;42.646;21.150;2023-06-26T08:03:34;17.73;;;10.40;;
32918;SDS011;19280;42.646;21.150;2023-06-26T08:06:01;14.07;;;11.18;;
32918;SDS011;19280;42.646;21.150;2023-06-26T08:08:28;18.00;;;10.65;;
32918;SDS011;19280;42.646;21.150;2023-06-26T08:10:54;14.40;;;8.55;;
32918;SDS011;19280;42.646;21.150;2023-06-26T08:13:20;9.63;;;7.60;;
32918;SDS011;19280;42.646;21.150;2023-06-26T08:15:46;16.80;;;11.02;;
32918;SDS011;19280;42.646;21.150;2023-06-26T08:18:12;13.05;;;8.30;;
32918;SDS011;19280;42.646;21.150;2023-06-26T08:20:38;13.65;;;8.25;;
32918;SDS011;19280;42.646;21.150;2023-06-26T08:23:04;9.63;;;8.32;;
32918;SDS011;19280;42.646;21.150;2023-06-26T08:25:30;12.02;;;9.07;;
32918;SDS011;19280;42.646;21.150;2023-06-26T08:27:57;9.95;;;6.97;;
32918;SDS011;19280;42.646;21.150;2023-06-26T08:30:23;10.60;;;6.20;;
32918;SDS011;19280;42.646;21.150;2023-06-26T08:32:53;6.35;;;5.65;;
32918;SDS011;19280;42.646;21.150;2023-06-26T08:35:19;13.77;;;6.30;;
32918;SDS011;19280;42.646;21.150;2023-06-26T08:37:45;8.75;;;5.95;;
32918;SDS011;19280;42.646;21.150;2023-06-26T08:40:11;8.75;;;6.60;;
32918;SDS011;19280;42.646;21.150;2023-06-26T08:42:38;9.55;;;5.25;;
32918;SDS011;19280;42.646;21.150;2023-06-26T08:45:04;10.90;;;5.45;;
32918;SDS011;19280;42.646;21.150;2023-06-26T08:47:30;8.75;;;6.10;;
32918;SDS011;19280;42.646;21.150;2023-06-26T08:50:10;7.90;;;5.60;;
32918;SDS011;19280;42.646;21.150;2023-06-26T08:52:37;6.65;;;5.47;;
32918;SDS011;19280;42.646;21.150;2023-06-26T08:55:08;8.80;;;5.80;;
32918;SDS011;19280;42.646;21.150;2023-06-26T08:57:36;13.75;;;6.03;;
32918;SDS011;19280;42.646;21.150;2023-06-26T09:00:03;12.00;;;5.20;;
32918;SDS011;19280;42.646;21.150;2023-06-26T09:02:29;10.55;;;5.45;;
32918;SDS011;19280;42.646;21.150;2023-06-26T09:04:55;15.07;;;5.07;;
32918;SDS011;19280;42.646;21.150;2023-06-26T09:07:21;9.93;;;5.20;;
32918;SDS011;19280;42.646;21.150;2023-06-26T09:09:47;12.52;;;5.20;;
32918;SDS011;19280;42.646;21.150;2023-06-26T09:12:13;6.88;;;4.75;;
32918;SDS011;19280;42.646;21.150;2023-06-26T09:14:39;9.32;;;5.45;;
32918;SDS011;19280;42.646;21.150;2023-06-26T09:17:06;5.72;;;4.60;;
32918;SDS011;19280;42.646;21.150;2023-06-26T09:19:35;7.22;;;5.32;;
32918;SDS011;19280;42.646;21.150;2023-06-26T09:22:02;15.13;;;5.57;;
32918;SDS011;19280;42.646;21.150;2023-06-26T09:24:28;8.43;;;4.78;;
32918;SDS011;19280;42.646;21.150;2023-06-26T09:26:56;7.75;;;4.90;;
32918;SDS011;19280;42.646;21.150;2023-06-26T09:29:22;11.90;;;4.80;;
32918;SDS011;19280;42.646;21.150;2023-06-26T09:31:49;6.03;;;5.03;;
32918;SDS011;19280;42.646;21.150;2023-06-26T09:34:17;7.97;;;4.97;;
32918;SDS011;19280;42.646;21.150;2023-06-26T09:36:45;8.35;;;4.80;;
32918;SDS011;19280;42.646;21.150;2023-06-26T09:39:12;11.40;;;5.10;;
32918;SDS011;19280;42.646;21.150;2023-06-26T09:41:43;6.55;;;5.40;;
32918;SDS011;19280;42.646;21.150;2023-06-26T09:44:13;9.85;;;5.40;;
32918;SDS011;19280;42.646;21.150;2023-06-26T09:46:39;9.43;;;5.28;;
32918;SDS011;19280;42.646;21.150;2023-06-26T09:51:32;6.93;;;4.72;;
32918;SDS011;19280;42.646;21.150;2023-06-26T09:53:59;7.70;;;5.57;;
32918;SDS011;19280;42.646;21.150;2023-06-26T09:56:26;5.95;;;5.00;;
32918;SDS011;19280;42.646;21.150;2023-06-26T09:58:55;12.70;;;5.45;;
32918;SDS011;19280;42.646;21.150;2023-06-26T10:01:22;8.50;;;4.80;;
32918;SDS011;19280;42.646;21.150;2023-06-26T10:03:48;8.10;;;5.18;;
32918;SDS011;19280;42.646;21.150;2023-06-26T10:06:14;6.78;;;5.20;;
32918;SDS011;19280;42.646;21.150;2023-06-26T10:08:41;7.03;;;4.80;;
32918;SDS011;19280;42.646;21.150;2023-06-26T10:11:08;6.20;;;4.80;;
32918;SDS011;19280;42.646;21.150;2023-06-26T10:13:38;5.63;;;4.45;;
32918;SDS011;19280;42.646;21.150;2023-06-26T10:16:04;8.02;;;4.90;;
32918;SDS011;19280;42.646;21.150;2023-06-26T10:18:32;8.73;;;5.32;;
32918;SDS011;19280;42.646;21.150;2023-06-26T10:21:00;8.68;;;4.88;;
32918;SDS011;19280;42.646;21.150;2023-06-26T10:23:28;11.07;;;5.18;;
32918;SDS011;19280;42.646;21.150;2023-06-26T10:25:55;6.97;;;4.20;;
32918;SDS011;19280;42.646;21.150;2023-06-26T10:28:24;8.23;;;3.95;;
32918;SDS011;19280;42.646;21.150;2023-06-26T10:30:57;6.93;;;4.50;;
32918;SDS011;19280;42.646;21.150;2023-06-26T10:33:24;5.63;;;4.20;;
32918;SDS011;19280;42.646;21.150;2023-06-26T10:35:50;5.95;;;3.90;;
32918;SDS011;19280;42.646;21.150;2023-06-26T10:38:16;6.07;;;3.97;;
32918;SDS011;19280;42.646;21.150;2023-06-26T10:40:46;5.88;;;4.30;;
32918;SDS011;19280;42.646;21.150;2023-06-26T10:43:13;11.25;;;4.43;;
32918;SDS011;19280;42.646;21.150;2023-06-26T10:45:49;6.20;;;4.28;;
32918;SDS011;19280;42.646;21.150;2023-06-26T10:48:17;6.30;;;4.25;;
32918;SDS011;19280;42.646;21.150;2023-06-26T10:50:43;8.75;;;4.63;;
32918;SDS011;19280;42.646;21.150;2023-06-26T10:55:47;6.22;;;4.63;;
32918;SDS011;19280;42.646;21.150;2023-06-26T10:58:27;6.22;;;4.90;;
32918;SDS011;19280;42.646;21.150;2023-06-26T11:03:41;8.30;;;4.80;;
32918;SDS011;19280;42.646;21.150;2023-06-26T11:06:40;6.47;;;4.30;;
32918;SDS011;19280;42.646;21.150;2023-06-26T11:09:00;7.97;;;4.60;;
32918;SDS011;19280;42.646;21.150;2023-06-26T11:14:12;5.35;;;4.22;;
32918;SDS011;19280;42.646;21.150;2023-06-26T11:16:38;5.55;;;4.63;;
32918;SDS011;19280;42.646;21.150;2023-06-26T11:19:04;6.32;;;4.47;;
32918;SDS011;19280;42.646;21.150;2023-06-26T11:21:30;7.70;;;4.68;;
32918;SDS011;19280;42.646;21.150;2023-06-26T11:23:56;12.30;;;5.28;;
32918;SDS011;19280;42.646;21.150;2023-06-26T11:26:25;6.68;;;4.90;;
32918;SDS011;19280;42.646;21.150;2023-06-26T11:28:54;14.75;;;5.20;;
32918;SDS011;19280;42.646;21.150;2023-06-26T11:31:33;7.07;;;4.47;;
32918;SDS011;19280;42.646;21.150;2023-06-26T11:34:04;8.10;;;5.13;;
32918;SDS011;19280;42.646;21.150;2023-06-26T11:36:31;8.18;;;4.90;;
32918;SDS011;19280;42.646;21.150;2023-06-26T11:39:01;6.85;;;4.80;;
32918;SDS011;19280;42.646;21.150;2023-06-26T11:41:34;7.15;;;5.45;;
32918;SDS011;19280;42.646;21.150;2023-06-26T11:44:08;8.45;;;5.32;;
32918;SDS011;19280;42.646;21.150;2023-06-26T11:46:35;9.57;;;5.10;;
32918;SDS011;19280;42.646;21.150;2023-06-26T11:49:10;10.63;;;5.05;;
32918;SDS011;19280;42.646;21.150;2023-06-26T11:51:36;9.80;;;6.03;;
32918;SDS011;19280;42.646;21.150;2023-06-26T11:54:03;7.60;;;5.35;;
32918;SDS011;19280;42.646;21.150;2023-06-26T11:56:29;7.82;;;5.25;;
32918;SDS011;19280;42.646;21.150;2023-06-26T11:59:05;8.38;;;5.35;;
32918;SDS011;19280;42.646;21.150;2023-06-26T12:01:41;8.85;;;5.70;;
32918;SDS011;19280;42.646;21.150;2023-06-26T12:04:11;9.48;;;5.68;;
32918;SDS011;19280;42.646;21.150;2023-06-26T12:06:38;6.88;;;5.32;;
32918;SDS011;19280;42.646;21.150;2023-06-26T12:09:08;8.52;;;5.90;;
32918;SDS011;19280;42.646;21.150;2023-06-26T12:11:36;8.95;;;5.78;;
32918;SDS011;19280;42.646;21.150;2023-06-26T12:14:03;10.35;;;5.57;;
32918;SDS011;19280;42.646;21.150;2023-06-26T12:16:31;10.35;;;5.72;;
32918;SDS011;19280;42.646;21.150;2023-06-26T12:19:07;7.00;;;5.35;;
32918;SDS011;19280;42.646;21.150;2023-06-26T12:24:06;10.63;;;5.75;;
32918;SDS011;19280;42.646;21.150;2023-06-26T12:29:04;12.02;;;5.72;;
32918;SDS011;19280;42.646;21.150;2023-06-26T12:31:30;8.98;;;5.85;;
32918;SDS011;19280;42.646;21.150;2023-06-26T12:33:56;8.63;;;5.93;;
32918;SDS011;19280;42.646;21.150;2023-06-26T12:36:23;8.02;;;6.55;;
32918;SDS011;19280;42.646;21.150;2023-06-26T12:38:49;8.48;;;6.45;;
32918;SDS011;19280;42.646;21.150;2023-06-26T12:41:15;10.77;;;6.57;;
32918;SDS011;19280;42.646;21.150;2023-06-26T12:43:42;14.38;;;6.68;;
32918;SDS011;19280;42.646;21.150;2023-06-26T12:46:08;11.48;;;5.88;;
32918;SDS011;19280;42.646;21.150;2023-06-26T12:48:41;9.27;;;6.28;;
32918;SDS011;19280;42.646;21.150;2023-06-26T12:51:17;12.05;;;5.68;;
32918;SDS011;19280;42.646;21.150;2023-06-26T12:53:43;8.23;;;6.32;;
32918;SDS011;19280;42.646;21.150;2023-06-26T12:56:09;11.93;;;6.40;;
32918;SDS011;19280;42.646;21.150;2023-06-26T12:58:36;10.25;;;6.07;;
32918;SDS011;19280;42.646;21.150;2023-06-26T13:01:03;7.88;;;6.28;;
32918;SDS011;19280;42.646;21.150;2023-06-26T13:03:29;9.10;;;6.25;;
32918;SDS011;19280;42.646;21.150;2023-06-26T13:05:55;9.23;;;6.20;;
32918;SDS011;19280;42.646;21.150;2023-06-26T13:08:21;9.75;;;5.80;;
32918;SDS011;19280;42.646;21.150;2023-06-26T13:10:47;8.50;;;6.35;;
32918;SDS011;19280;42.646;21.150;2023-06-26T13:13:14;10.32;;;5.97;;
32918;SDS011;19280;42.646;21.150;2023-06-26T13:15:40;10.38;;;5.78;;
32918;SDS011;19280;42.646;21.150;2023-06-26T13:18:06;5.78;;;4.80;;
32918;SDS011;19280;42.646;21.150;2023-06-26T13:20:32;8.40;;;4.90;;
32918;SDS011;19280;42.646;21.150;2023-06-26T13:22:58;7.20;;;4.90;;
32918;SDS011;19280;42.646;21.150;2023-06-26T13:25:24;7.38;;;4.72;;
32918;SDS011;19280;42.646;21.150;2023-06-26T13:27:50;6.53;;;4.70;;
32918;SDS011;19280;42.646;21.150;2023-06-26T13:30:16;6.13;;;4.45;;
32918;SDS011;19280;42.646;21.150;2023-06-26T13:32:42;13.30;;;5.15;;
32918;SDS011;19280;42.646;21.150;2023-06-26T13:35:09;8.15;;;4.95;;
32918;SDS011;19280;42.646;21.150;2023-06-26T13:37:35;13.43;;;5.45;;
32918;SDS011;19280;42.646;21.150;2023-06-26T13:40:02;10.60;;;5.60;;
32918;SDS011;19280;42.646;21.150;2023-06-26T13:42:28;7.60;;;5.40;;
32918;SDS011;19280;42.646;21.150;2023-06-26T13:44:55;7.88;;;4.78;;
32918;SDS011;19280;42.646;21.150;2023-06-26T13:47:21;8.52;;;5.07;;
32918;SDS011;19280;42.646;21.150;2023-06-26T13:49:47;7.97;;;5.05;;
32918;SDS011;19280;42.646;21.150;2023-06-26T13:52:13;5.25;;;4.22;;
32918;SDS011;19280;42.646;21.150;2023-06-26T13:54:39;5.45;;;4.47;;
32918;SDS011;19280;42.646;21.150;2023-06-26T13:57:08;8.68;;;5.10;;
32918;SDS011;19280;42.646;21.150;2023-06-26T13:59:36;8.30;;;4.80;;
32918;SDS011;19280;42.646;21.150;2023-06-26T14:02:02;7.35;;;4.95;;
32918;SDS011;19280;42.646;21.150;2023-06-26T14:04:30;13.52;;;4.80;;
32918;SDS011;19280;42.646;21.150;2023-06-26T14:06:56;6.70;;;5.20;;
32918;SDS011;19280;42.646;21.150;2023-06-26T14:09:22;7.78;;;5.00;;
32918;SDS011;19280;42.646;21.150;2023-06-26T14:11:48;11.65;;;4.85;;
32918;SDS011;19280;42.646;21.150;2023-06-26T14:14:14;8.00;;;4.20;;
32918;SDS011;19280;42.646;21.150;2023-06-26T14:16:40;8.07;;;4.57;;
32918;SDS011;19280;42.646;21.150;2023-06-26T14:19:06;5.97;;;4.60;;
32918;SDS011;19280;42.646;21.150;2023-06-26T14:21:32;6.20;;;4.35;;
32918;SDS011;19280;42.646;21.150;2023-06-26T14:23:59;11.77;;;4.60;;
32918;SDS011;19280;42.646;21.150;2023-06-26T14:26:27;7.82;;;4.72;;
32918;SDS011;19280;42.646;21.150;2023-06-26T14:28:54;12.20;;;4.50;;
32918;SDS011;19280;42.646;21.150;2023-06-26T14:31:20;13.45;;;4.45;;
32918;SDS011;19280;42.646;21.150;2023-06-26T14:33:47;9.00;;;4.85;;
32918;SDS011;19280;42.646;21.150;2023-06-26T14:36:13;6.32;;;4.55;;
32918;SDS011;19280;42.646;21.150;2023-06-26T14:38:39;6.20;;;4.43;;
32918;SDS011;19280;42.646;21.150;2023-06-26T14:41:05;8.18;;;5.03;;
32918;SDS011;19280;42.646;21.150;2023-06-26T14:43:31;8.88;;;5.00;;
32918;SDS011;19280;42.646;21.150;2023-06-26T14:45:57;5.90;;;4.55;;
32918;SDS011;19280;42.646;21.150;2023-06-26T14:48:23;9.15;;;4.60;;